createdAt,value
2017-07-15T00:02:23.681Z,89.53
2017-07-15T00:04:55.952Z,89.26
2017-07-15T00:07:28.360Z,89.20
2017-07-15T00:10:00.937Z,88.84
2017-07-15T00:12:33.285Z,88.51
2017-07-15T00:15:05.820Z,88.21
2017-07-15T00:17:38.369Z,88.30
2017-07-15T00:20:10.740Z,88.12
2017-07-15T00:22:43.106Z,87.81
2017-07-15T00:25:15.566Z,87.72
2017-07-15T00:27:47.922Z,87.71
2017-07-15T00:30:20.497Z,87.57
2017-07-15T00:32:52.760Z,87.39
2017-07-15T00:35:25.213Z,87.08
2017-07-15T00:37:57.910Z,86.82
2017-07-15T00:40:30.122Z,86.68
2017-07-15T00:43:02.436Z,86.58
2017-07-15T00:45:34.926Z,86.36
2017-07-15T00:48:07.340Z,86.46
2017-07-15T00:50:39.868Z,86.42
2017-07-15T00:53:12.286Z,86.41
2017-07-15T00:55:44.920Z,86.45
2017-07-15T00:58:17.214Z,86.65
2017-07-15T01:00:49.634Z,86.37
2017-07-15T01:03:21.886Z,86.39
2017-07-15T01:05:54.384Z,86.55
2017-07-15T01:08:33.809Z,86.73
2017-07-15T01:11:06.387Z,86.69
2017-07-15T01:13:38.861Z,87.01
2017-07-15T01:16:11.129Z,87.02
2017-07-15T01:18:43.682Z,86.92
2017-07-15T01:21:16.143Z,87.07
2017-07-15T01:23:48.557Z,87.01
2017-07-15T01:26:21.010Z,87.31
2017-07-15T01:28:53.302Z,87.37
2017-07-15T01:31:25.669Z,87.46
2017-07-15T01:33:58.181Z,87.13
2017-07-15T01:36:30.611Z,86.94
2017-07-15T01:39:02.953Z,87.54
2017-07-15T01:41:35.352Z,87.23
2017-07-15T01:44:07.617Z,87.06
2017-07-15T01:46:40.107Z,86.98
2017-07-15T01:49:12.540Z,87.00
2017-07-15T01:51:44.947Z,87.39
2017-07-15T01:54:17.341Z,87.41
2017-07-15T01:56:49.813Z,87.54
2017-07-15T01:59:22.252Z,87.38
2017-07-15T02:01:54.621Z,87.47
2017-07-15T02:04:27.002Z,87.53
2017-07-15T02:07:00.392Z,88.06
2017-07-15T02:09:32.853Z,88.47
2017-07-15T02:12:05.261Z,88.29
2017-07-15T02:14:37.641Z,88.39
2017-07-15T02:17:10.113Z,88.37
2017-07-15T02:19:42.490Z,88.69
2017-07-15T02:22:14.881Z,89.00
2017-07-15T02:24:47.347Z,89.32
2017-07-15T02:27:19.932Z,89.51
2017-07-15T02:29:52.281Z,89.10
2017-07-15T02:32:24.794Z,89.08
2017-07-15T02:34:57.328Z,89.10
2017-07-15T02:37:29.848Z,89.57
2017-07-15T02:40:02.385Z,89.88
2017-07-15T02:42:34.876Z,90.13
2017-07-15T02:45:07.341Z,90.18
2017-07-15T02:47:39.888Z,90.11
2017-07-15T02:50:12.252Z,90.37
2017-07-15T02:52:44.761Z,90.66
2017-07-15T02:55:17.153Z,90.66
2017-07-15T02:57:49.758Z,90.60
2017-07-15T03:00:22.109Z,90.50
2017-07-15T03:02:54.649Z,90.42
2017-07-15T03:05:26.961Z,90.38
2017-07-15T03:07:59.369Z,90.32
2017-07-15T03:10:31.717Z,90.45
2017-07-15T03:13:04.188Z,90.64
2017-07-15T03:15:36.532Z,90.52
2017-07-15T03:18:08.929Z,90.52
2017-07-15T03:20:41.402Z,90.85
2017-07-15T03:23:13.777Z,91.04
2017-07-15T03:25:46.236Z,91.06
2017-07-15T03:28:18.689Z,91.05
2017-07-15T03:30:50.890Z,90.90
2017-07-15T03:33:23.290Z,90.93
2017-07-15T03:35:55.621Z,91.12
2017-07-15T03:38:28.126Z,91.04
2017-07-15T03:41:00.547Z,91.04
2017-07-15T03:43:32.949Z,90.98
2017-07-15T03:46:05.417Z,90.88
2017-07-15T03:48:37.917Z,91.05
2017-07-15T03:51:10.214Z,90.79
2017-07-15T03:53:42.766Z,90.72
2017-07-15T03:56:15.024Z,90.76
2017-07-15T03:58:47.904Z,90.73
2017-07-15T04:01:19.941Z,90.91
2017-07-15T04:03:52.365Z,90.89
2017-07-15T04:06:24.614Z,91.00
2017-07-15T04:08:57.125Z,90.78
2017-07-15T04:11:29.452Z,90.90
2017-07-15T04:14:01.937Z,91.06
2017-07-15T04:16:34.414Z,91.09
2017-07-15T04:19:06.913Z,91.06
2017-07-15T04:21:39.392Z,90.99
2017-07-15T04:24:11.852Z,90.80
2017-07-15T04:26:44.284Z,90.60
2017-07-15T04:29:16.825Z,89.82
2017-07-15T04:31:49.226Z,89.38
2017-07-15T04:34:21.774Z,89.58
2017-07-15T04:36:54.239Z,89.73
2017-07-15T04:39:27.538Z,89.70
2017-07-15T04:41:59.946Z,89.63
2017-07-15T04:44:32.261Z,89.67
2017-07-15T04:47:04.679Z,89.39
2017-07-15T04:49:37.397Z,89.43
2017-07-15T04:52:09.501Z,89.47
2017-07-15T04:54:42.000Z,89.58
2017-07-15T04:57:14.385Z,89.62
2017-07-15T04:59:47.862Z,89.23
2017-07-15T05:02:20.297Z,88.75
2017-07-15T05:04:52.833Z,87.25
2017-07-15T05:07:25.156Z,85.54
2017-07-15T05:09:57.633Z,85.07
2017-07-15T05:12:30.031Z,85.45
2017-07-15T05:15:02.491Z,85.09
2017-07-15T05:17:34.912Z,84.87
2017-07-15T05:20:07.378Z,83.32
2017-07-15T05:22:39.756Z,77.43
2017-07-15T05:25:12.338Z,74.94
2017-07-15T05:27:44.841Z,73.75
2017-07-15T05:30:17.082Z,73.59
2017-07-15T05:32:49.465Z,73.05
2017-07-15T05:35:22.021Z,72.22
2017-07-15T05:37:54.402Z,73.17
2017-07-15T05:40:26.901Z,72.15
2017-07-15T05:42:59.235Z,70.01
2017-07-15T05:45:31.641Z,68.53
2017-07-15T05:48:04.093Z,69.11
2017-07-15T05:50:36.693Z,70.77
2017-07-15T05:53:09.136Z,70.61
2017-07-15T05:55:41.471Z,71.74
2017-07-15T05:58:13.850Z,70.83
2017-07-15T06:00:46.273Z,70.01
2017-07-15T06:03:18.681Z,69.14
2017-07-15T06:05:51.020Z,63.06
2017-07-15T06:08:23.478Z,57.58
2017-07-15T06:10:55.913Z,56.18
2017-07-15T06:13:28.426Z,56.77
2017-07-15T06:16:01.013Z,59.71
2017-07-15T06:18:33.459Z,62.98
2017-07-15T06:21:05.877Z,65.58
2017-07-15T06:23:38.317Z,67.47
2017-07-15T06:26:10.611Z,69.34
2017-07-15T06:28:43.135Z,70.81
2017-07-15T06:31:15.463Z,71.72
2017-07-15T06:33:48.139Z,68.10
2017-07-15T06:36:20.303Z,61.48
2017-07-15T06:38:52.861Z,55.99
2017-07-15T06:41:25.235Z,53.11
2017-07-15T06:43:57.458Z,55.61
2017-07-15T06:46:29.818Z,58.63
2017-07-15T06:49:02.044Z,62.02
2017-07-15T06:51:34.521Z,64.82
2017-07-15T06:54:07.218Z,66.87
2017-07-15T06:56:39.595Z,68.44
2017-07-15T06:59:11.954Z,69.92
2017-07-15T07:01:44.421Z,69.96
2017-07-15T07:04:16.926Z,64.68
2017-07-15T07:06:49.319Z,60.49
2017-07-15T07:09:21.679Z,57.46
2017-07-15T07:11:54.051Z,58.45
2017-07-15T07:14:26.503Z,58.96
2017-07-15T07:16:59.100Z,59.49
2017-07-15T07:19:31.549Z,59.79
2017-07-15T07:22:03.816Z,58.97
2017-07-15T07:24:36.072Z,57.94
2017-07-15T07:27:08.283Z,50.94
2017-07-15T07:29:40.752Z,47.72
2017-07-15T07:32:13.086Z,49.36
2017-07-15T07:34:45.290Z,51.27
2017-07-15T07:37:17.764Z,55.25
2017-07-15T07:39:49.993Z,56.55
2017-07-15T07:42:22.412Z,57.06
2017-07-15T07:44:54.952Z,59.28
2017-07-15T07:47:27.457Z,61.58
2017-07-15T07:49:59.786Z,62.65
2017-07-15T07:52:32.097Z,65.25
2017-07-15T07:55:04.393Z,67.08
2017-07-15T07:57:36.797Z,67.99
2017-07-15T08:00:09.348Z,69.54
2017-07-15T08:02:41.758Z,70.47
2017-07-15T08:05:14.185Z,70.70
2017-07-15T08:07:46.553Z,68.91
2017-07-15T08:10:19.030Z,67.76
2017-07-15T08:12:51.257Z,66.77
2017-07-15T08:15:23.628Z,67.33
2017-07-15T08:17:56.037Z,66.65
2017-07-15T08:20:28.346Z,67.47
2017-07-15T08:23:00.778Z,66.81
2017-07-15T08:25:33.014Z,66.82
2017-07-15T08:28:05.270Z,67.64
2017-07-15T08:30:37.509Z,65.97
2017-07-15T08:33:09.901Z,66.67
2017-07-15T08:35:42.143Z,66.28
2017-07-15T08:38:14.675Z,66.26
2017-07-15T08:40:47.013Z,66.40
2017-07-15T08:43:19.426Z,65.11
2017-07-15T08:45:51.860Z,62.46
2017-07-15T08:48:24.245Z,59.40
2017-07-15T08:50:56.514Z,56.45
2017-07-15T08:53:28.874Z,52.88
2017-07-15T08:56:01.017Z,53.02
2017-07-15T08:58:33.417Z,52.09
2017-07-15T09:01:05.683Z,51.72
2017-07-15T09:03:38.075Z,49.38
2017-07-15T09:06:10.417Z,49.90
2017-07-15T09:08:42.722Z,51.71
2017-07-15T09:11:15.039Z,51.48
2017-07-15T09:13:47.483Z,52.84
2017-07-15T09:16:19.813Z,54.14
2017-07-15T09:18:52.154Z,52.47
2017-07-15T09:21:24.467Z,51.12
2017-07-15T09:23:56.728Z,49.14
2017-07-15T09:26:28.993Z,47.29
2017-07-15T09:29:01.476Z,44.69
2017-07-15T09:31:33.745Z,44.25
2017-07-15T09:34:06.235Z,44.22
2017-07-15T09:36:38.549Z,40.05
2017-07-15T09:39:10.929Z,39.81
2017-07-15T09:41:43.343Z,39.48
2017-07-15T09:44:15.428Z,38.49
2017-07-15T09:46:47.718Z,38.07
2017-07-15T09:49:19.986Z,38.52
2017-07-15T09:51:52.301Z,38.43
2017-07-15T09:54:24.751Z,39.85
2017-07-15T09:56:56.913Z,42.00
2017-07-15T09:59:29.213Z,44.38
2017-07-15T10:02:01.460Z,46.28
2017-07-15T10:04:33.797Z,49.43
2017-07-15T10:07:06.018Z,51.25
2017-07-15T10:09:38.196Z,51.46
2017-07-15T10:12:10.369Z,52.25
2017-07-15T10:14:42.552Z,52.68
2017-07-15T10:17:14.937Z,54.86
2017-07-15T10:19:47.417Z,55.79
2017-07-15T10:22:19.693Z,56.98
2017-07-15T10:24:52.081Z,56.13
2017-07-15T10:27:25.222Z,56.24
2017-07-15T10:29:57.945Z,55.24
2017-07-15T10:32:30.246Z,52.78
2017-07-15T10:35:02.598Z,52.09
2017-07-15T10:37:34.865Z,53.03
2017-07-15T10:40:07.319Z,52.63
2017-07-15T10:42:39.785Z,52.47
2017-07-15T10:45:12.081Z,51.30
2017-07-15T10:47:44.377Z,51.13
2017-07-15T10:50:17.598Z,49.98
2017-07-15T10:52:50.089Z,50.71
2017-07-15T10:55:22.413Z,49.75
2017-07-15T10:57:54.694Z,50.26
2017-07-15T11:00:27.100Z,49.35
2017-07-15T11:02:59.446Z,47.63
2017-07-15T11:05:31.790Z,45.93
2017-07-15T11:08:04.083Z,43.59
2017-07-15T11:10:36.437Z,40.46
2017-07-15T11:13:08.714Z,41.24
2017-07-15T11:15:41.110Z,42.33
2017-07-15T11:18:13.461Z,41.66
2017-07-15T11:20:45.825Z,40.71
2017-07-15T11:23:18.072Z,41.36
2017-07-15T11:25:50.459Z,42.28
2017-07-15T11:28:22.854Z,42.55
2017-07-15T11:30:55.120Z,43.13
2017-07-15T11:33:27.473Z,43.32
2017-07-15T11:35:59.874Z,42.73
2017-07-15T11:38:32.128Z,43.44
2017-07-15T11:41:04.499Z,44.81
2017-07-15T11:43:36.871Z,46.03
2017-07-15T11:46:09.160Z,46.49
2017-07-15T11:48:41.511Z,47.41
2017-07-15T11:51:14.129Z,48.47
2017-07-15T11:53:46.433Z,48.70
2017-07-15T11:56:18.745Z,50.16
2017-07-15T11:58:50.994Z,49.73
2017-07-15T12:01:23.390Z,49.85
2017-07-15T12:03:55.855Z,49.60
2017-07-15T12:06:28.133Z,49.67
2017-07-15T12:09:00.501Z,48.27
2017-07-15T12:11:33.042Z,48.07
2017-07-15T12:14:05.353Z,47.47
2017-07-15T12:16:38.637Z,46.07
2017-07-15T12:19:11.124Z,46.17
2017-07-15T12:21:43.572Z,46.48
2017-07-15T12:24:15.886Z,46.35
2017-07-15T12:26:48.165Z,46.80
2017-07-15T12:29:20.528Z,46.43
2017-07-15T12:31:52.803Z,46.24
2017-07-15T12:34:25.010Z,45.21
2017-07-15T12:36:57.366Z,45.79
2017-07-15T12:39:29.682Z,45.44
2017-07-15T12:42:02.060Z,44.93
2017-07-15T12:44:34.442Z,45.60
2017-07-15T12:47:06.845Z,44.78
2017-07-15T12:49:39.190Z,45.58
2017-07-15T12:52:11.581Z,45.64
2017-07-15T12:54:43.786Z,46.18
2017-07-15T12:57:16.975Z,46.21
2017-07-15T12:59:49.681Z,46.32
2017-07-15T13:02:21.825Z,45.55
2017-07-15T13:04:54.137Z,46.32
2017-07-15T13:07:26.600Z,46.34
2017-07-15T13:09:58.910Z,45.58
2017-07-15T13:12:31.382Z,43.77
2017-07-15T13:15:03.729Z,41.21
2017-07-15T13:17:37.077Z,40.60
2017-07-15T13:20:09.522Z,41.21
2017-07-15T13:22:42.022Z,41.45
2017-07-15T13:25:14.267Z,42.30
2017-07-15T13:27:46.773Z,43.65
2017-07-15T13:30:19.110Z,38.72
2017-07-15T13:32:51.518Z,39.55
2017-07-15T13:35:23.837Z,39.65
2017-07-15T13:37:56.265Z,39.11
2017-07-15T13:40:28.613Z,40.53
2017-07-15T13:43:01.149Z,40.61
2017-07-15T13:45:33.557Z,38.44
2017-07-15T13:48:06.027Z,40.22
2017-07-15T13:50:38.389Z,39.46
2017-07-15T13:53:10.869Z,40.52
2017-07-15T13:55:43.137Z,41.77
2017-07-15T13:58:15.485Z,39.88
2017-07-15T14:00:47.759Z,41.03
2017-07-15T14:03:20.185Z,41.86
2017-07-15T14:05:52.601Z,42.47
2017-07-15T14:08:24.874Z,41.78
2017-07-15T14:10:57.157Z,42.23
2017-07-15T14:13:29.589Z,42.93
2017-07-15T14:16:01.861Z,42.92
2017-07-15T14:18:34.203Z,43.38
2017-07-15T14:21:06.564Z,44.26
2017-07-15T14:23:39.155Z,43.53
2017-07-15T14:26:11.489Z,43.24
2017-07-15T14:28:43.921Z,43.73
2017-07-15T14:31:16.262Z,43.63
2017-07-15T14:33:48.583Z,42.83
2017-07-15T14:36:20.966Z,41.96
2017-07-15T14:38:53.284Z,42.21
2017-07-15T14:41:25.711Z,40.39
2017-07-15T14:43:58.021Z,39.86
2017-07-15T14:46:30.343Z,41.18
2017-07-15T14:49:02.756Z,41.91
2017-07-15T14:51:35.149Z,42.88
2017-07-15T14:54:07.589Z,43.53
2017-07-15T14:56:39.989Z,43.94
2017-07-15T14:59:12.205Z,42.60
2017-07-15T15:01:44.428Z,43.75
2017-07-15T15:04:17.829Z,44.01
2017-07-15T15:06:50.228Z,45.25
2017-07-15T15:09:22.612Z,43.97
2017-07-15T15:11:55.042Z,44.32
2017-07-15T15:14:27.275Z,43.13
2017-07-15T15:17:00.224Z,43.23
2017-07-15T15:19:33.036Z,43.89
2017-07-15T15:22:05.281Z,43.46
2017-07-15T15:24:37.749Z,43.37
2017-07-15T15:27:09.901Z,43.41
2017-07-15T15:29:42.206Z,44.44
2017-07-15T15:32:14.535Z,44.66
2017-07-15T15:34:46.927Z,44.02
2017-07-15T15:37:19.227Z,43.97
2017-07-15T15:39:51.493Z,44.50
2017-07-15T15:42:23.581Z,46.31
2017-07-15T15:44:55.879Z,47.79
2017-07-15T15:47:28.187Z,49.04
2017-07-15T15:50:00.646Z,49.13
2017-07-15T15:52:32.936Z,49.44
2017-07-15T15:55:05.199Z,48.13
2017-07-15T15:57:37.448Z,48.31
2017-07-15T16:00:09.819Z,48.54
2017-07-15T16:02:42.095Z,49.17
2017-07-15T16:05:14.414Z,49.09
2017-07-15T16:07:46.952Z,48.42
2017-07-15T16:10:19.253Z,49.39
2017-07-15T16:12:51.697Z,49.38
2017-07-15T16:15:23.872Z,49.03
2017-07-15T16:17:56.204Z,49.45
2017-07-15T16:20:28.694Z,49.58
2017-07-15T16:23:01.048Z,49.39
2017-07-15T16:25:33.379Z,48.29
2017-07-15T16:28:05.653Z,48.93
2017-07-15T16:30:38.349Z,48.29
2017-07-15T16:33:10.680Z,48.41
2017-07-15T16:35:43.123Z,48.66
2017-07-15T16:38:15.575Z,48.43
2017-07-15T16:40:48.083Z,48.70
2017-07-15T16:43:20.170Z,49.20
2017-07-15T16:45:52.403Z,49.61
2017-07-15T16:48:24.659Z,50.29
2017-07-15T16:50:57.061Z,50.39
2017-07-15T16:53:29.381Z,50.88
2017-07-15T16:56:01.771Z,51.01
2017-07-15T16:58:34.029Z,51.22
2017-07-15T17:01:06.209Z,50.15
2017-07-15T17:03:38.453Z,50.38
2017-07-15T17:06:10.790Z,50.98
2017-07-15T17:08:42.963Z,51.38
2017-07-15T17:11:15.424Z,50.27
2017-07-15T17:13:47.660Z,49.17
2017-07-15T17:16:20.108Z,49.29
2017-07-15T17:18:52.467Z,48.88
2017-07-15T17:21:25.156Z,49.50
2017-07-15T17:23:57.475Z,49.46
2017-07-15T17:26:30.464Z,49.53
2017-07-15T17:29:02.248Z,49.27
2017-07-15T17:31:34.636Z,49.66
2017-07-15T17:34:06.960Z,48.73
2017-07-15T17:36:39.307Z,48.81
2017-07-15T17:39:11.804Z,49.15
2017-07-15T17:41:44.434Z,49.88
2017-07-15T17:44:16.827Z,50.17
2017-07-15T17:46:49.115Z,50.36
2017-07-15T17:49:22.099Z,50.58
2017-07-15T17:51:53.949Z,51.02
2017-07-15T17:54:26.619Z,51.34
2017-07-15T17:56:58.708Z,51.94
2017-07-15T17:59:31.182Z,52.33
2017-07-15T18:02:03.438Z,52.52
2017-07-15T18:04:35.870Z,52.62
2017-07-15T18:07:08.257Z,52.19
2017-07-15T18:09:40.322Z,52.64
2017-07-15T18:12:12.507Z,52.97
2017-07-15T18:14:44.828Z,53.25
2017-07-15T18:17:17.164Z,53.14
2017-07-15T18:19:49.530Z,53.54
2017-07-15T18:22:21.803Z,53.47
2017-07-15T18:24:54.126Z,54.10
2017-07-15T18:27:26.443Z,53.72
2017-07-15T18:29:58.829Z,54.25
2017-07-15T18:32:30.972Z,53.75
2017-07-15T18:35:03.197Z,54.12
2017-07-15T18:37:35.443Z,53.96
2017-07-15T18:40:07.812Z,54.71
2017-07-15T18:42:40.047Z,54.98
2017-07-15T18:45:12.447Z,54.74
2017-07-15T18:47:44.719Z,54.81
2017-07-15T18:50:17.026Z,55.56
2017-07-15T18:52:49.471Z,56.10
2017-07-15T18:55:21.669Z,56.33
2017-07-15T18:57:54.039Z,56.84
2017-07-15T19:00:26.315Z,57.76
2017-07-15T19:02:58.701Z,58.52
2017-07-15T19:05:31.074Z,59.71
2017-07-15T19:08:03.284Z,58.92
2017-07-15T19:10:35.647Z,58.93
2017-07-15T19:13:07.862Z,58.80
2017-07-15T19:15:40.227Z,62.29
2017-07-15T19:18:12.554Z,61.01
2017-07-15T19:20:45.025Z,60.01
2017-07-15T19:23:17.304Z,60.24
2017-07-15T19:25:49.873Z,61.20
2017-07-15T19:28:22.115Z,62.55
2017-07-15T19:30:54.463Z,62.91
2017-07-15T19:33:26.765Z,63.31
2017-07-15T19:35:59.203Z,63.81
2017-07-15T19:38:31.503Z,65.32
2017-07-15T19:41:04.118Z,65.89
2017-07-15T19:43:36.370Z,66.96
2017-07-15T19:46:09.637Z,67.83
2017-07-15T19:48:41.972Z,67.68
2017-07-15T19:51:14.451Z,67.14
2017-07-15T19:53:46.733Z,67.15
2017-07-15T19:56:20.285Z,66.81
2017-07-15T19:58:52.760Z,68.28
2017-07-15T20:01:24.759Z,68.02
2017-07-15T20:03:57.129Z,68.90
2017-07-15T20:06:29.598Z,69.53
2017-07-15T20:09:02.031Z,70.20
2017-07-15T20:11:34.559Z,70.90
2017-07-15T20:14:07.002Z,70.65
2017-07-15T20:16:39.329Z,72.04
2017-07-15T20:19:11.656Z,71.63
2017-07-15T20:21:44.121Z,71.70
2017-07-15T20:24:25.717Z,71.85
2017-07-15T20:26:58.795Z,72.46
2017-07-15T20:29:31.032Z,72.43
2017-07-15T20:32:03.404Z,72.51
2017-07-15T20:34:35.789Z,72.80
2017-07-15T20:37:13.736Z,72.70
2017-07-15T20:39:45.495Z,73.35
2017-07-15T20:42:17.766Z,73.46
2017-07-15T20:44:50.025Z,73.50
2017-07-15T20:47:22.286Z,73.84
2017-07-15T20:49:54.730Z,73.77
2017-07-15T20:52:33.181Z,74.07
2017-07-15T20:55:05.435Z,74.31
2017-07-15T20:57:37.917Z,74.08
2017-07-15T21:00:10.241Z,73.92
2017-07-15T21:02:42.666Z,74.12
2017-07-15T21:05:15.209Z,74.31
2017-07-15T21:07:47.485Z,74.59
2017-07-15T21:10:19.884Z,74.52
2017-07-15T21:12:52.293Z,74.59
2017-07-15T21:15:24.612Z,74.35
2017-07-15T21:17:57.149Z,74.45
2017-07-15T21:20:29.652Z,74.50
2017-07-15T21:23:01.772Z,75.22
2017-07-15T21:25:34.121Z,75.13
2017-07-15T21:28:06.512Z,75.38
2017-07-15T21:30:38.896Z,75.34
2017-07-15T21:33:11.342Z,76.23
2017-07-15T21:35:43.631Z,75.80
2017-07-15T21:38:16.973Z,76.40
2017-07-15T21:40:49.385Z,75.92
2017-07-15T21:43:23.061Z,76.05
2017-07-15T21:45:55.194Z,76.70
2017-07-15T21:48:27.769Z,76.82
2017-07-15T21:51:00.101Z,76.75
2017-07-15T21:53:32.857Z,77.13
2017-07-15T21:56:05.029Z,76.76
2017-07-15T21:58:37.265Z,76.75
2017-07-15T22:01:09.575Z,76.87
2017-07-15T22:03:42.009Z,77.09
2017-07-15T22:06:13.889Z,77.26
2017-07-15T22:11:25.763Z,77.56
2017-07-15T22:13:58.129Z,76.91
2017-07-15T22:16:30.566Z,76.68
2017-07-15T22:19:03.011Z,76.59
2017-07-15T22:21:35.370Z,77.13
2017-07-15T22:24:07.717Z,77.30
2017-07-15T22:26:40.245Z,77.63
2017-07-15T22:29:12.493Z,77.84
2017-07-15T22:31:44.857Z,77.87
2017-07-15T22:34:17.182Z,77.54
2017-07-15T22:36:49.573Z,77.56
2017-07-15T22:39:21.980Z,77.77
2017-07-15T22:41:54.321Z,77.94
2017-07-15T22:44:26.837Z,78.18
2017-07-15T22:46:59.221Z,78.16
2017-07-15T22:49:31.550Z,78.05
2017-07-15T22:52:03.958Z,77.82
2017-07-15T22:54:36.220Z,77.97
2017-07-15T22:57:08.549Z,78.27
2017-07-15T22:59:40.974Z,78.26
2017-07-15T23:02:13.417Z,78.63
2017-07-15T23:04:45.803Z,78.63
2017-07-15T23:07:18.077Z,79.04
2017-07-15T23:09:50.637Z,79.55
2017-07-15T23:12:23.024Z,79.36
2017-07-15T23:14:55.485Z,79.22
2017-07-15T23:17:27.870Z,79.23
2017-07-15T23:20:00.316Z,79.09
2017-07-15T23:22:32.711Z,78.99
2017-07-15T23:25:05.202Z,78.56
2017-07-15T23:27:37.887Z,78.73
2017-07-15T23:30:09.735Z,78.17
2017-07-15T23:32:42.102Z,78.22
2017-07-15T23:35:14.544Z,77.36
2017-07-15T23:37:46.938Z,77.95
2017-07-15T23:40:19.244Z,78.04
2017-07-15T23:42:51.651Z,78.43
2017-07-15T23:45:24.296Z,78.33
2017-07-15T23:47:56.641Z,77.97
2017-07-15T23:50:29.193Z,77.73
2017-07-15T23:53:01.544Z,77.81
2017-07-15T23:55:33.936Z,77.97
2017-07-15T23:58:06.285Z,77.52
